createdAt,value
2023-02-22T00:00:26.678Z,2.56
2023-02-22T00:02:52.880Z,2.52
2023-02-22T00:05:19.091Z,2.48
2023-02-22T00:07:45.264Z,2.44
2023-02-22T00:10:11.396Z,2.41
2023-02-22T00:12:37.536Z,2.37
2023-02-22T00:15:03.725Z,2.31
2023-02-22T00:17:29.884Z,2.26
2023-02-22T00:19:56.008Z,2.30
2023-02-22T00:22:22.181Z,2.29
2023-02-22T00:24:48.392Z,2.32
2023-02-22T00:27:14.569Z,2.26
2023-02-22T00:29:40.760Z,2.29
2023-02-22T00:32:07.043Z,2.39
2023-02-22T00:34:33.362Z,2.35
2023-02-22T00:36:59.495Z,2.38
2023-02-22T00:39:25.645Z,2.34
2023-02-22T00:41:51.831Z,2.39
2023-02-22T00:44:17.973Z,2.34
2023-02-22T00:46:44.149Z,2.32
2023-02-22T00:49:10.319Z,2.31
2023-02-22T00:51:36.572Z,2.30
2023-02-22T00:54:02.732Z,2.28
2023-02-22T00:56:28.893Z,2.27
2023-02-22T00:58:55.117Z,2.28
2023-02-22T01:01:21.378Z,2.30
2023-02-22T01:03:47.597Z,2.24
2023-02-22T01:06:13.954Z,2.20
2023-02-22T01:08:41.287Z,2.18
2023-02-22T01:11:07.491Z,2.11
2023-02-22T01:13:33.651Z,2.10
2023-02-22T01:15:59.756Z,2.07
2023-02-22T01:18:25.897Z,2.05
2023-02-22T01:20:52.067Z,2.08
2023-02-22T01:23:18.185Z,2.10
2023-02-22T01:25:44.321Z,2.08
2023-02-22T01:28:10.482Z,2.03
2023-02-22T01:30:36.804Z,2.01
2023-02-22T01:33:03.103Z,1.93
2023-02-22T01:35:29.334Z,1.90
2023-02-22T01:37:55.534Z,1.88
2023-02-22T01:40:21.922Z,1.85
2023-02-22T01:42:48.093Z,1.92
2023-02-22T01:45:14.277Z,1.89
2023-02-22T01:47:40.417Z,1.84
2023-02-22T01:50:06.571Z,1.80
2023-02-22T01:52:32.729Z,1.79
2023-02-22T01:54:58.866Z,1.76
2023-02-22T01:57:25.117Z,1.76
2023-02-22T01:59:51.348Z,1.73
2023-02-22T02:02:17.552Z,1.75
2023-02-22T02:04:43.731Z,1.76
2023-02-22T02:07:09.873Z,1.73
2023-02-22T02:09:37.222Z,1.59
2023-02-22T02:12:03.384Z,1.73
2023-02-22T02:14:29.519Z,1.68
2023-02-22T02:16:55.723Z,1.67
2023-02-22T02:19:21.917Z,1.65
2023-02-22T02:21:48.094Z,1.60
2023-02-22T02:24:14.238Z,1.60
2023-02-22T02:26:40.472Z,1.59
2023-02-22T02:29:06.657Z,1.57
2023-02-22T02:31:32.820Z,1.57
2023-02-22T02:33:59.006Z,1.56
2023-02-22T02:36:25.157Z,1.52
2023-02-22T02:38:51.323Z,1.53
2023-02-22T02:41:17.847Z,1.51
2023-02-22T02:43:44.182Z,1.45
2023-02-22T02:46:10.348Z,1.45
2023-02-22T02:48:36.523Z,1.42
2023-02-22T02:51:02.720Z,1.40
2023-02-22T02:53:28.859Z,1.44
2023-02-22T02:55:54.983Z,1.47
2023-02-22T02:58:21.159Z,1.46
2023-02-22T03:00:47.337Z,1.46
2023-02-22T03:03:13.573Z,1.43
2023-02-22T03:05:39.699Z,1.41
2023-02-22T03:08:05.882Z,1.44
2023-02-22T03:10:32.126Z,1.45
2023-02-22T03:12:58.303Z,1.43
2023-02-22T03:15:24.479Z,1.39
2023-02-22T03:17:50.623Z,1.38
2023-02-22T03:20:16.821Z,1.36
2023-02-22T03:22:42.991Z,1.35
2023-02-22T03:25:09.249Z,1.30
2023-02-22T03:27:35.381Z,1.31
2023-02-22T03:30:01.529Z,1.43
2023-02-22T03:32:27.707Z,1.41
2023-02-22T03:34:55.410Z,1.44
2023-02-22T03:37:24.250Z,1.41
2023-02-22T03:39:50.394Z,1.37
2023-02-22T03:42:16.539Z,1.40
2023-02-22T03:44:42.697Z,1.46
2023-02-22T03:47:08.913Z,1.45
2023-02-22T03:49:35.124Z,1.43
2023-02-22T03:52:01.280Z,1.41
2023-02-22T03:54:27.446Z,1.36
2023-02-22T03:56:53.645Z,1.33
2023-02-22T03:59:19.799Z,1.35
2023-02-22T04:01:45.950Z,1.32
2023-02-22T04:04:12.141Z,1.29
2023-02-22T04:06:38.337Z,1.28
2023-02-22T04:09:04.579Z,1.26
2023-02-22T04:11:30.764Z,1.20
2023-02-22T04:13:56.944Z,1.18
2023-02-22T04:16:23.182Z,1.18
2023-02-22T04:18:49.383Z,1.16
2023-02-22T04:21:15.840Z,1.15
2023-02-22T04:23:42.176Z,1.13
2023-02-22T04:26:08.366Z,1.08
2023-02-22T04:28:34.552Z,1.05
2023-02-22T04:31:00.775Z,1.03
2023-02-22T04:33:26.956Z,1.05
2023-02-22T04:35:53.119Z,1.06
2023-02-22T04:38:19.435Z,1.04
2023-02-22T04:40:45.639Z,0.99
2023-02-22T04:43:11.759Z,0.96
2023-02-22T04:45:37.977Z,0.98
2023-02-22T04:48:04.151Z,0.96
2023-02-22T04:50:30.331Z,0.98
2023-02-22T04:52:56.530Z,0.79
2023-02-22T04:55:22.696Z,0.96
2023-02-22T04:57:48.839Z,0.99
2023-02-22T05:00:14.998Z,1.01
2023-02-22T05:02:41.212Z,1.01
2023-02-22T05:05:07.454Z,0.98
2023-02-22T05:07:33.645Z,0.99
2023-02-22T05:09:59.767Z,0.97
2023-02-22T05:12:25.898Z,0.99
2023-02-22T05:14:52.115Z,0.98
2023-02-22T05:17:19.402Z,0.97
2023-02-22T05:19:45.621Z,0.96
2023-02-22T05:22:11.774Z,0.95
2023-02-22T05:24:37.911Z,0.90
2023-02-22T05:27:04.088Z,0.91
2023-02-22T05:29:30.268Z,0.87
2023-02-22T05:31:56.476Z,0.83
2023-02-22T05:34:22.652Z,0.79
2023-02-22T05:36:48.833Z,0.76
2023-02-22T05:39:15.021Z,0.75
2023-02-22T05:41:41.259Z,0.73
2023-02-22T05:44:07.429Z,0.71
2023-02-22T05:46:33.626Z,0.72
2023-02-22T05:48:59.773Z,0.69
2023-02-22T05:51:25.928Z,0.67
2023-02-22T05:53:52.155Z,0.69
2023-02-22T05:56:18.386Z,0.70
2023-02-22T05:58:44.685Z,0.72
2023-02-22T06:01:10.844Z,0.72
2023-02-22T06:03:37.080Z,0.74
2023-02-22T06:06:03.265Z,0.75
2023-02-22T06:08:29.454Z,0.73
2023-02-22T06:10:55.606Z,0.76
2023-02-22T06:13:21.812Z,0.79
2023-02-22T06:15:47.963Z,0.81
2023-02-22T06:18:14.129Z,0.86
2023-02-22T06:20:40.317Z,0.81
2023-02-22T06:23:06.706Z,0.79
2023-02-22T06:25:32.919Z,0.78
2023-02-22T06:27:59.088Z,0.80
2023-02-22T06:30:25.251Z,0.85
2023-02-22T06:32:51.737Z,0.90
2023-02-22T06:35:17.871Z,0.94
2023-02-22T06:37:43.997Z,1.01
2023-02-22T06:40:10.156Z,1.05
2023-02-22T06:42:36.360Z,1.06
2023-02-22T06:45:02.576Z,1.15
2023-02-22T06:47:28.778Z,1.18
2023-02-22T06:49:54.952Z,1.21
2023-02-22T06:52:21.170Z,1.21
2023-02-22T06:54:47.334Z,1.24
2023-02-22T06:57:13.477Z,1.25
2023-02-22T06:59:39.660Z,1.32
2023-02-22T07:02:05.827Z,1.37
2023-02-22T07:04:32.003Z,1.42
2023-02-22T07:06:58.200Z,1.50
2023-02-22T07:09:29.030Z,1.56
2023-02-22T07:11:55.209Z,1.68
2023-02-22T07:14:21.339Z,1.80
2023-02-22T07:16:47.545Z,1.93
2023-02-22T07:19:13.682Z,2.07
2023-02-22T07:21:39.854Z,2.18
2023-02-22T07:24:06.058Z,2.28
2023-02-22T07:26:32.257Z,2.37
2023-02-22T07:28:58.402Z,2.54
2023-02-22T07:31:24.556Z,2.64
2023-02-22T07:33:50.724Z,2.78
2023-02-22T07:36:16.899Z,2.94
2023-02-22T07:38:43.128Z,3.08
2023-02-22T07:41:09.278Z,3.29
2023-02-22T07:43:35.479Z,3.49
2023-02-22T07:46:01.737Z,3.70
2023-02-22T07:48:27.886Z,3.98
2023-02-22T07:50:54.782Z,4.26
2023-02-22T07:53:20.978Z,4.47
2023-02-22T07:55:47.150Z,4.76
2023-02-22T07:58:13.325Z,4.97
2023-02-22T08:00:39.508Z,5.18
2023-02-22T08:03:05.684Z,5.38
2023-02-22T08:05:32.000Z,5.55
2023-02-22T08:07:58.175Z,5.77
2023-02-22T08:10:24.501Z,5.93
2023-02-22T08:12:50.695Z,6.26
2023-02-22T08:15:16.892Z,6.66
2023-02-22T08:17:43.068Z,6.96
2023-02-22T08:20:09.215Z,7.15
2023-02-22T08:22:35.694Z,7.17
2023-02-22T08:25:01.867Z,7.27
2023-02-22T08:27:28.029Z,7.27
2023-02-22T08:29:56.552Z,7.45
2023-02-22T08:32:22.913Z,7.82
2023-02-22T08:34:49.170Z,8.28
2023-02-22T08:37:15.310Z,8.66
2023-02-22T08:39:41.545Z,9.05
2023-02-22T08:42:15.118Z,9.37
2023-02-22T08:44:41.782Z,9.79
2023-02-22T08:47:08.040Z,9.96
2023-02-22T08:49:34.274Z,9.62
2023-02-22T08:52:00.468Z,10.02
2023-02-22T08:54:26.683Z,10.31
2023-02-22T08:56:52.888Z,11.10
2023-02-22T08:59:22.161Z,11.61
2023-02-22T09:01:49.607Z,11.73
2023-02-22T09:04:15.818Z,11.89
2023-02-22T09:06:41.974Z,12.61
2023-02-22T09:09:08.186Z,12.91
2023-02-22T09:11:34.401Z,12.85
2023-02-22T09:14:00.583Z,12.54
2023-02-22T09:16:26.770Z,12.86
2023-02-22T09:18:53.020Z,12.55
2023-02-22T09:21:19.256Z,12.63
2023-02-22T09:23:45.591Z,12.62
2023-02-22T09:26:11.823Z,12.88
2023-02-22T09:28:38.003Z,12.19
2023-02-22T09:31:04.174Z,12.98
2023-02-22T09:33:30.467Z,13.46
2023-02-22T09:35:56.690Z,13.83
2023-02-22T09:38:22.892Z,13.42
2023-02-22T09:40:49.111Z,13.17
2023-02-22T09:43:15.258Z,13.25
2023-02-22T09:45:41.414Z,12.71
2023-02-22T09:48:21.120Z,12.29
2023-02-22T09:50:48.084Z,12.04
2023-02-22T09:53:14.260Z,11.69
2023-02-22T09:55:40.438Z,11.47
2023-02-22T09:58:06.600Z,11.65
2023-02-22T10:00:32.797Z,12.08
2023-02-22T10:02:58.971Z,12.45
2023-02-22T10:05:25.189Z,12.70
2023-02-22T10:07:51.409Z,12.95
2023-02-22T10:10:17.604Z,12.69
2023-02-22T10:12:43.810Z,12.50
2023-02-22T10:15:10.004Z,12.65
2023-02-22T10:17:36.148Z,13.01
2023-02-22T10:22:52.585Z,13.25
2023-02-22T10:25:18.741Z,13.73
2023-02-22T10:27:44.924Z,14.01
2023-02-22T10:30:23.828Z,14.74
2023-02-22T10:32:50.966Z,15.21
2023-02-22T10:35:17.096Z,16.07
2023-02-22T10:37:43.314Z,16.30
2023-02-22T10:40:09.540Z,17.04
2023-02-22T10:42:35.723Z,16.98
2023-02-22T10:45:01.951Z,16.74
2023-02-22T10:47:28.149Z,16.42
2023-02-22T10:49:54.334Z,16.81
2023-02-22T10:52:20.578Z,17.21
2023-02-22T10:54:46.830Z,17.32
2023-02-22T10:57:13.001Z,17.15
2023-02-22T10:59:41.221Z,18.04
2023-02-22T11:02:07.419Z,18.15
2023-02-22T11:04:33.584Z,18.06
2023-02-22T11:06:59.766Z,17.97
2023-02-22T11:09:25.982Z,17.79
2023-02-22T11:11:52.184Z,17.84
2023-02-22T11:14:18.354Z,17.44
2023-02-22T11:16:44.565Z,17.34
2023-02-22T11:19:10.823Z,16.76
2023-02-22T11:21:36.998Z,16.79
2023-02-22T11:24:03.194Z,17.08
2023-02-22T11:26:29.451Z,17.78
2023-02-22T11:28:55.635Z,18.24
2023-02-22T11:31:21.847Z,18.81
2023-02-22T11:33:48.149Z,19.48
2023-02-22T11:36:14.319Z,19.42
2023-02-22T11:38:40.528Z,18.99
2023-02-22T11:41:06.679Z,18.97
2023-02-22T11:43:32.897Z,19.11
2023-02-22T11:46:00.562Z,19.43
2023-02-22T11:48:28.497Z,19.24
2023-02-22T11:50:54.688Z,18.50
2023-02-22T11:53:20.873Z,18.09
2023-02-22T11:55:47.061Z,17.87
2023-02-22T11:58:13.856Z,16.97
2023-02-22T12:00:40.099Z,17.24
2023-02-22T12:03:06.329Z,16.68
2023-02-22T12:05:32.474Z,16.58
2023-02-22T12:08:00.075Z,16.27
2023-02-22T12:10:27.681Z,16.29
2023-02-22T12:12:53.949Z,15.77
2023-02-22T12:15:20.187Z,15.78
2023-02-22T12:17:58.123Z,16.05
2023-02-22T12:20:28.900Z,16.11
2023-02-22T12:22:55.063Z,16.29
2023-02-22T12:25:21.240Z,16.26
2023-02-22T12:27:47.420Z,16.10
2023-02-22T12:30:13.692Z,16.07
2023-02-22T12:32:39.950Z,16.11
2023-02-22T12:35:06.116Z,16.25
2023-02-22T12:37:32.316Z,16.57
2023-02-22T12:39:58.509Z,16.42
2023-02-22T12:42:24.689Z,16.46
2023-02-22T12:44:50.864Z,15.81
2023-02-22T12:47:17.033Z,16.23
2023-02-22T12:49:43.207Z,16.30
2023-02-22T12:52:21.001Z,16.41
2023-02-22T12:54:47.874Z,16.51
2023-02-22T12:57:14.089Z,16.67
2023-02-22T12:59:40.245Z,16.54
2023-02-22T13:02:06.444Z,16.46
2023-02-22T13:04:32.608Z,16.35
2023-02-22T13:06:59.085Z,16.40
2023-02-22T13:09:25.240Z,16.66
2023-02-22T13:11:51.424Z,16.57
2023-02-22T13:14:19.652Z,16.48
2023-02-22T13:16:45.884Z,16.70
2023-02-22T13:19:12.095Z,16.58
2023-02-22T13:21:38.305Z,16.24
2023-02-22T13:24:04.471Z,16.36
2023-02-22T13:26:30.620Z,16.44
2023-02-22T13:28:56.784Z,16.75
2023-02-22T13:31:23.024Z,16.78
2023-02-22T13:33:49.217Z,16.91
2023-02-22T13:36:15.661Z,17.18
2023-02-22T13:38:41.976Z,17.15
2023-02-22T13:41:08.239Z,16.60
2023-02-22T13:43:34.400Z,16.33
2023-02-22T13:46:00.599Z,16.42
2023-02-22T13:48:26.768Z,16.56
2023-02-22T13:50:52.919Z,16.56
2023-02-22T13:53:19.077Z,16.51
2023-02-22T13:55:45.253Z,16.25
2023-02-22T13:58:11.462Z,16.27
2023-02-22T14:00:37.607Z,16.34
2023-02-22T14:03:03.773Z,16.27
2023-02-22T14:05:30.540Z,16.12
2023-02-22T14:07:56.831Z,16.03
2023-02-22T14:10:23.053Z,16.10
2023-02-22T14:12:49.285Z,16.20
2023-02-22T14:15:29.749Z,16.17
2023-02-22T14:17:56.884Z,16.30
2023-02-22T14:20:23.100Z,16.13
2023-02-22T14:22:49.261Z,16.21
2023-02-22T14:25:27.764Z,16.28
2023-02-22T14:27:54.331Z,16.40
2023-02-22T14:30:20.522Z,16.38
2023-02-22T14:32:46.764Z,16.57
2023-02-22T14:35:25.442Z,16.68
2023-02-22T14:37:53.428Z,16.51
2023-02-22T14:40:19.620Z,16.69
2023-02-22T14:42:45.807Z,16.74
2023-02-22T14:45:12.655Z,16.69
2023-02-22T14:47:38.878Z,17.01
2023-02-22T14:50:05.038Z,17.11
2023-02-22T14:52:31.215Z,17.14
2023-02-22T14:54:57.483Z,17.02
2023-02-22T14:57:23.688Z,16.96
2023-02-22T14:59:49.882Z,16.67
2023-02-22T15:02:16.107Z,16.44
2023-02-22T15:04:42.609Z,16.09
2023-02-22T15:07:08.780Z,15.83
2023-02-22T15:09:35.050Z,15.68
2023-02-22T15:12:01.232Z,15.55
2023-02-22T15:14:27.364Z,15.45
2023-02-22T15:16:53.514Z,15.37
2023-02-22T15:19:19.721Z,15.45
2023-02-22T15:21:45.885Z,15.32
2023-02-22T15:24:12.056Z,15.23
2023-02-22T15:26:40.860Z,15.26
2023-02-22T15:29:08.660Z,15.14
2023-02-22T15:31:34.834Z,15.05
2023-02-22T15:34:00.987Z,15.10
2023-02-22T15:36:27.194Z,15.01
2023-02-22T15:38:53.358Z,14.87
2023-02-22T15:41:19.717Z,14.79
2023-02-22T15:43:45.940Z,14.74
2023-02-22T15:46:12.131Z,14.66
2023-02-22T15:48:38.334Z,14.56
2023-02-22T15:51:04.559Z,14.51
2023-02-22T15:53:30.861Z,14.43
2023-02-22T15:55:57.062Z,14.33
2023-02-22T15:58:23.243Z,14.18
2023-02-22T16:00:49.365Z,14.13
2023-02-22T16:03:15.538Z,14.02
2023-02-22T16:05:41.713Z,13.95
2023-02-22T16:08:07.930Z,13.91
2023-02-22T16:10:34.151Z,13.79
2023-02-22T16:13:00.344Z,13.68
2023-02-22T16:15:26.574Z,13.55
2023-02-22T16:18:01.898Z,13.43
2023-02-22T16:20:28.660Z,13.38
2023-02-22T16:22:54.792Z,13.35
2023-02-22T16:25:20.987Z,13.18
2023-02-22T16:27:47.132Z,13.12
2023-02-22T16:30:23.936Z,13.01
2023-02-22T16:32:50.847Z,12.92
2023-02-22T16:35:17.144Z,12.80
2023-02-22T16:37:43.362Z,12.74
2023-02-22T16:40:09.571Z,12.62
2023-02-22T16:42:37.711Z,12.38
2023-02-22T16:45:03.905Z,12.20
2023-02-22T16:47:30.066Z,12.17
2023-02-22T16:49:56.217Z,12.09
2023-02-22T16:52:22.344Z,11.95
2023-02-22T16:54:48.476Z,11.83
2023-02-22T16:57:14.632Z,11.62
2023-02-22T16:59:40.774Z,11.43
2023-02-22T17:02:06.944Z,11.44
2023-02-22T17:04:33.133Z,11.25
2023-02-22T17:06:59.321Z,11.11
2023-02-22T17:09:25.545Z,10.97
2023-02-22T17:11:51.736Z,10.88
2023-02-22T17:14:17.848Z,10.89
2023-02-22T17:16:44.057Z,10.85
2023-02-22T17:19:10.197Z,10.80
2023-02-22T17:21:36.358Z,10.76
2023-02-22T17:24:02.526Z,10.70
2023-02-22T17:26:28.680Z,10.65
2023-02-22T17:28:54.898Z,10.55
2023-02-22T17:31:21.113Z,10.52
2023-02-22T17:33:47.274Z,10.50
2023-02-22T17:36:13.454Z,10.46
2023-02-22T17:38:39.627Z,10.47
2023-02-22T17:41:05.809Z,10.56
2023-02-22T17:43:31.942Z,10.59
2023-02-22T17:45:59.126Z,10.59
2023-02-22T17:48:25.324Z,10.52
2023-02-22T17:50:51.470Z,10.44
2023-02-22T17:53:17.684Z,10.38
2023-02-22T17:55:43.846Z,10.31
2023-02-22T18:01:00.167Z,10.22
2023-02-22T18:06:18.640Z,10.14
2023-02-22T18:08:44.885Z,10.08
2023-02-22T18:11:11.020Z,10.04
2023-02-22T18:13:37.140Z,9.98
2023-02-22T18:16:03.362Z,9.97
2023-02-22T18:18:29.574Z,9.94
2023-02-22T18:20:55.740Z,9.95
2023-02-22T18:23:21.947Z,9.95
2023-02-22T18:25:57.186Z,9.95
2023-02-22T18:28:30.239Z,9.88
2023-02-22T18:30:56.431Z,9.82
2023-02-22T18:33:22.609Z,9.76
2023-02-22T18:35:48.799Z,9.72
2023-02-22T18:38:14.989Z,9.65
2023-02-22T18:40:41.211Z,9.63
2023-02-22T18:43:07.363Z,9.60
2023-02-22T18:45:33.496Z,9.50
2023-02-22T18:47:59.687Z,9.49
2023-02-22T18:50:28.764Z,9.43
2023-02-22T18:52:54.944Z,9.35
2023-02-22T18:55:21.136Z,9.30
2023-02-22T18:57:47.315Z,9.25
2023-02-22T19:00:13.471Z,9.19
2023-02-22T19:02:39.665Z,9.19
2023-02-22T19:05:05.846Z,9.14
2023-02-22T19:07:32.069Z,9.07
2023-02-22T19:09:58.211Z,8.99
2023-02-22T19:12:24.412Z,8.92
2023-02-22T19:14:50.586Z,8.85
2023-02-22T19:17:16.769Z,8.82
2023-02-22T19:19:42.963Z,8.74
2023-02-22T19:22:09.238Z,8.70
2023-02-22T19:24:35.425Z,8.68
2023-02-22T19:27:01.847Z,8.62
2023-02-22T19:29:28.007Z,8.62
2023-02-22T19:31:54.298Z,8.56
2023-02-22T19:34:20.530Z,8.51
2023-02-22T19:36:46.946Z,8.47
2023-02-22T19:39:13.147Z,8.39
2023-02-22T19:41:39.292Z,8.40
2023-02-22T19:44:05.512Z,8.33
2023-02-22T19:46:31.703Z,8.30
2023-02-22T19:48:57.978Z,8.26
2023-02-22T19:51:24.251Z,8.22
2023-02-22T19:53:50.481Z,8.22
2023-02-22T19:56:16.722Z,8.15
2023-02-22T19:58:42.978Z,8.07
2023-02-22T20:01:09.181Z,8.02
2023-02-22T20:03:35.511Z,7.89
2023-02-22T20:06:03.829Z,7.83
2023-02-22T20:08:29.987Z,7.73
2023-02-22T20:10:56.176Z,7.65
2023-02-22T20:13:22.532Z,7.59
2023-02-22T20:15:48.724Z,7.55
2023-02-22T20:18:14.941Z,7.52
2023-02-22T20:20:41.119Z,7.47
2023-02-22T20:23:07.297Z,7.41
2023-02-22T20:25:33.435Z,7.38
2023-02-22T20:27:59.642Z,7.37
2023-02-22T20:30:25.839Z,7.40
2023-02-22T20:32:52.210Z,7.36
2023-02-22T20:35:18.564Z,7.30
2023-02-22T20:37:45.997Z,7.27
2023-02-22T20:40:12.150Z,7.26
2023-02-22T20:42:38.442Z,7.26
2023-02-22T20:45:04.745Z,7.30
2023-02-22T20:47:30.904Z,7.32
2023-02-22T20:49:57.067Z,7.36
2023-02-22T20:52:23.226Z,7.38
2023-02-22T20:54:49.462Z,7.45
2023-02-22T20:57:15.695Z,7.51
2023-02-22T20:59:41.831Z,7.57
2023-02-22T21:02:08.077Z,7.66
2023-02-22T21:04:36.593Z,7.71
2023-02-22T21:07:02.748Z,7.74
2023-02-22T21:09:30.950Z,7.78
2023-02-22T21:11:57.211Z,7.83
2023-02-22T21:14:23.436Z,7.88
2023-02-22T21:16:49.707Z,7.95
2023-02-22T21:19:16.044Z,8.02
2023-02-22T21:21:42.226Z,8.03
2023-02-22T21:24:08.480Z,8.09
2023-02-22T21:26:34.716Z,8.13
2023-02-22T21:29:00.905Z,8.19
2023-02-22T21:31:27.122Z,8.22
2023-02-22T21:33:53.331Z,8.25
2023-02-22T21:36:19.492Z,8.34
2023-02-22T21:38:54.713Z,8.36
2023-02-22T21:41:21.243Z,8.38
2023-02-22T21:43:47.472Z,8.39
2023-02-22T21:46:13.657Z,8.45
2023-02-22T21:48:39.862Z,8.48
2023-02-22T21:51:06.072Z,8.53
2023-02-22T21:53:32.567Z,8.53
2023-02-22T21:55:58.735Z,8.55
2023-02-22T21:58:24.873Z,8.56
2023-02-22T22:00:51.075Z,8.61
2023-02-22T22:03:17.258Z,8.62
2023-02-22T22:05:43.473Z,8.65
2023-02-22T22:08:09.670Z,8.63
2023-02-22T22:10:35.888Z,8.71
2023-02-22T22:13:02.012Z,8.74
2023-02-22T22:15:28.214Z,8.78
2023-02-22T22:17:54.342Z,8.82
2023-02-22T22:20:20.599Z,8.85
2023-02-22T22:22:46.815Z,8.88
2023-02-22T22:25:13.014Z,8.93
2023-02-22T22:27:39.177Z,8.94
2023-02-22T22:30:05.338Z,8.95
2023-02-22T22:32:31.491Z,8.99
2023-02-22T22:34:57.661Z,9.01
2023-02-22T22:37:23.781Z,9.02
2023-02-22T22:39:49.974Z,9.03
2023-02-22T22:42:16.161Z,9.03
2023-02-22T22:44:42.535Z,9.03
2023-02-22T22:47:08.728Z,9.05
2023-02-22T22:49:34.874Z,9.05
2023-02-22T22:52:01.019Z,9.05
2023-02-22T22:54:27.150Z,9.13
2023-02-22T22:56:53.349Z,9.10
2023-02-22T22:59:19.477Z,9.05
2023-02-22T23:01:45.624Z,9.10
2023-02-22T23:04:11.826Z,9.11
2023-02-22T23:06:38.010Z,9.05
2023-02-22T23:09:04.177Z,9.04
2023-02-22T23:11:30.309Z,9.04
2023-02-22T23:13:56.552Z,9.05
2023-02-22T23:16:22.782Z,9.03
2023-02-22T23:18:48.934Z,9.05
2023-02-22T23:21:15.262Z,9.09
2023-02-22T23:23:41.534Z,9.14
2023-02-22T23:26:07.672Z,9.11
2023-02-22T23:28:33.878Z,9.18
2023-02-22T23:31:00.124Z,9.16
2023-02-22T23:33:26.382Z,9.25
2023-02-22T23:35:52.565Z,9.25
2023-02-22T23:38:18.716Z,9.22
2023-02-22T23:40:44.876Z,9.21
2023-02-22T23:43:11.030Z,9.16
2023-02-22T23:45:37.185Z,9.15
2023-02-22T23:48:03.313Z,9.15
2023-02-22T23:50:29.492Z,9.14
2023-02-22T23:52:55.679Z,9.13
2023-02-22T23:55:21.872Z,9.16
2023-02-22T23:57:47.999Z,9.10
